createdAt,value
2018-01-17T00:01:21.058Z,1.50
2018-01-17T00:03:55.238Z,1.60
2018-01-17T00:06:23.260Z,1.50
2018-01-17T00:08:52.202Z,1.60
2018-01-17T00:11:26.490Z,1.60
2018-01-17T00:13:56.450Z,1.70
2018-01-17T00:16:37.234Z,1.80
2018-01-17T00:19:05.294Z,1.80
2018-01-17T00:21:38.170Z,1.80
2018-01-17T00:24:08.238Z,1.80
2018-01-17T00:26:42.362Z,1.80
2018-01-17T00:29:18.282Z,1.80
2018-01-17T00:34:43.344Z,1.80
2018-01-17T00:37:15.194Z,1.70
2018-01-17T00:39:56.051Z,1.60
2018-01-17T00:42:26.126Z,1.60
2018-01-17T00:44:55.110Z,1.60
2018-01-17T00:47:26.862Z,1.60
2018-01-17T00:50:07.390Z,1.50
2018-01-17T00:52:37.306Z,1.50
2018-01-17T00:55:05.330Z,1.50
2018-01-17T00:57:36.094Z,1.50
2018-01-17T01:00:14.410Z,1.50
2018-01-17T01:02:43.533Z,1.40
2018-01-17T01:05:17.202Z,1.40
2018-01-17T01:07:45.258Z,1.40
2018-01-17T01:10:14.250Z,1.40
2018-01-17T01:12:46.186Z,1.40
2018-01-17T01:15:14.698Z,1.40
2018-01-17T01:17:49.493Z,1.50
2018-01-17T01:20:20.662Z,1.50
2018-01-17T01:22:49.663Z,1.50
2018-01-17T01:25:18.594Z,1.40
2018-01-17T01:27:46.861Z,1.30
2018-01-17T01:30:15.746Z,1.10
2018-01-17T01:32:44.766Z,1.00
2018-01-17T01:35:20.509Z,0.90
2018-01-17T01:37:57.839Z,0.90
2018-01-17T01:40:32.258Z,0.80
2018-01-17T01:43:01.442Z,0.80
2018-01-17T01:45:31.303Z,0.70
2018-01-17T01:48:06.349Z,0.70
2018-01-17T01:50:38.186Z,0.60
2018-01-17T01:53:06.202Z,0.70
2018-01-17T01:55:34.261Z,0.70
2018-01-17T01:58:05.614Z,0.70
2018-01-17T02:00:35.873Z,0.70
2018-01-17T02:03:11.089Z,0.70
2018-01-17T02:05:41.789Z,0.60
2018-01-17T02:08:11.814Z,0.60
2018-01-17T02:10:39.850Z,0.60
2018-01-17T02:13:07.858Z,0.50
2018-01-17T02:15:51.958Z,0.50
2018-01-17T02:18:19.946Z,0.50
2018-01-17T02:20:52.266Z,0.60
2018-01-17T02:23:24.203Z,0.60
2018-01-17T02:25:52.234Z,0.60
2018-01-17T02:28:23.846Z,0.60
2018-01-17T02:30:59.269Z,0.60
2018-01-17T02:33:29.284Z,0.60
2018-01-17T02:35:57.330Z,0.70
2018-01-17T02:38:25.330Z,0.70
2018-01-17T02:40:54.253Z,0.70
2018-01-17T02:43:24.593Z,0.70
2018-01-17T02:46:06.423Z,0.70
2018-01-17T02:48:35.422Z,0.80
2018-01-17T02:51:04.422Z,0.90
2018-01-17T02:53:32.497Z,1.00
2018-01-17T02:56:00.513Z,1.00
2018-01-17T02:58:35.842Z,1.10
2018-01-17T03:01:06.341Z,1.10
2018-01-17T03:03:34.365Z,1.20
2018-01-17T03:06:03.277Z,1.30
2018-01-17T03:08:35.038Z,1.30
2018-01-17T03:11:03.830Z,1.30
2018-01-17T03:13:33.325Z,1.40
2018-01-17T03:16:03.354Z,1.40
2018-01-17T03:18:32.381Z,1.40
2018-01-17T03:21:06.581Z,1.40
2018-01-17T03:23:48.393Z,1.50
2018-01-17T03:26:22.412Z,1.50
2018-01-17T03:28:51.349Z,1.50
2018-01-17T03:31:23.521Z,1.50
2018-01-17T03:33:51.781Z,1.50
2018-01-17T03:36:25.285Z,1.40
2018-01-17T03:39:01.633Z,1.30
2018-01-17T03:41:30.657Z,1.20
2018-01-17T03:44:02.497Z,1.20
2018-01-17T03:46:30.738Z,1.20
2018-01-17T03:49:00.689Z,1.20
2018-01-17T03:51:29.681Z,1.20
2018-01-17T03:54:08.789Z,1.20
2018-01-17T03:56:44.429Z,1.20
2018-01-17T03:59:44.521Z,1.10
2018-01-17T04:02:12.541Z,1.10
2018-01-17T04:04:42.461Z,1.10
2018-01-17T04:07:15.558Z,1.10
2018-01-17T04:09:48.436Z,1.20
2018-01-17T04:12:21.117Z,1.20
2018-01-17T04:14:52.766Z,1.20
2018-01-17T04:17:20.760Z,1.30
2018-01-17T04:19:49.721Z,1.30
2018-01-17T04:22:17.753Z,1.40
2018-01-17T04:24:45.760Z,1.40
2018-01-17T04:27:22.196Z,1.40
2018-01-17T04:30:07.988Z,1.50
2018-01-17T04:32:53.480Z,1.40
2018-01-17T04:35:32.628Z,1.50
2018-01-17T04:38:01.577Z,1.50
2018-01-17T04:40:29.605Z,1.60
2018-01-17T04:43:06.236Z,1.60
2018-01-17T04:48:28.345Z,1.60
2018-01-17T04:50:59.557Z,1.60
2018-01-17T04:53:33.373Z,1.50
2018-01-17T04:56:02.348Z,1.40
2018-01-17T04:58:31.368Z,1.20
2018-01-17T05:01:03.825Z,1.10
2018-01-17T05:03:31.829Z,1.00
2018-01-17T05:06:07.000Z,1.00
2018-01-17T05:08:38.785Z,0.90
2018-01-17T05:11:07.148Z,0.90
2018-01-17T05:13:42.197Z,0.80
2018-01-17T05:16:14.256Z,0.80
2018-01-17T05:18:42.300Z,0.80
2018-01-17T05:21:11.324Z,0.80
2018-01-17T05:23:44.119Z,0.80
2018-01-17T05:26:13.104Z,0.80
2018-01-17T05:28:43.108Z,0.80
2018-01-17T05:31:13.132Z,0.80
2018-01-17T05:33:46.952Z,0.80
2018-01-17T05:36:15.932Z,0.80
2018-01-17T05:38:45.960Z,0.70
2018-01-17T05:41:23.916Z,0.70
2018-01-17T05:44:07.124Z,0.70
2018-01-17T05:46:37.102Z,0.80
2018-01-17T05:52:07.636Z,0.80
2018-01-17T05:54:52.752Z,0.80
2018-01-17T05:57:22.516Z,0.90
2018-01-17T05:59:50.524Z,0.80
2018-01-17T06:02:23.280Z,0.90
2018-01-17T06:04:53.324Z,0.90
2018-01-17T06:07:23.300Z,0.90
2018-01-17T06:09:51.328Z,1.00
2018-01-17T06:12:20.273Z,1.00
2018-01-17T06:14:50.280Z,1.00
2018-01-17T06:17:18.296Z,1.00
2018-01-17T06:19:46.312Z,1.00
2018-01-17T06:22:15.304Z,1.00
2018-01-17T06:24:47.048Z,1.00
2018-01-17T06:27:16.060Z,1.00
2018-01-17T06:29:47.492Z,1.00
2018-01-17T06:32:17.524Z,1.00
2018-01-17T06:34:45.536Z,1.00
2018-01-17T06:37:15.508Z,1.00
2018-01-17T06:39:53.176Z,1.00
2018-01-17T06:42:23.140Z,1.00
2018-01-17T06:44:51.920Z,1.00
2018-01-17T06:47:21.956Z,1.00
2018-01-17T06:49:55.796Z,1.00
2018-01-17T06:52:24.812Z,1.00
2018-01-17T06:54:54.844Z,1.00
2018-01-17T06:57:23.844Z,1.00
2018-01-17T06:59:57.124Z,1.00
2018-01-17T07:02:28.900Z,1.00
2018-01-17T07:04:57.692Z,0.90
2018-01-17T07:07:36.464Z,0.90
2018-01-17T07:10:05.488Z,0.80
2018-01-17T07:12:33.508Z,0.80
2018-01-17T07:15:01.528Z,0.90
2018-01-17T07:17:30.504Z,0.90
2018-01-17T07:20:03.704Z,0.80
2018-01-17T07:22:31.716Z,0.80
2018-01-17T07:25:00.668Z,0.80
2018-01-17T07:27:32.520Z,0.70
2018-01-17T07:30:03.984Z,0.70
2018-01-17T07:32:32.956Z,0.70
2018-01-17T07:35:00.975Z,0.80
2018-01-17T07:37:28.994Z,0.80
2018-01-17T07:40:07.612Z,0.90
2018-01-17T07:42:54.120Z,0.90
2018-01-17T07:45:22.123Z,0.90
2018-01-17T07:47:54.156Z,0.90
2018-01-17T07:50:27.924Z,0.90
2018-01-17T07:53:02.316Z,1.00
2018-01-17T07:55:31.656Z,1.00
2018-01-17T07:58:05.000Z,1.00
2018-01-17T08:00:57.856Z,0.80
2018-01-17T08:03:33.576Z,0.70
2018-01-17T08:06:03.611Z,0.70
2018-01-17T08:11:28.195Z,0.50
2018-01-17T08:14:02.724Z,0.50
2018-01-17T08:16:30.752Z,0.50
2018-01-17T08:19:07.888Z,0.40
2018-01-17T08:21:35.907Z,0.40
2018-01-17T08:24:04.856Z,0.40
2018-01-17T08:26:53.235Z,0.40
2018-01-17T08:29:26.747Z,0.40
2018-01-17T08:32:08.344Z,0.40
2018-01-17T08:34:42.272Z,0.50
2018-01-17T08:37:10.320Z,0.50
2018-01-17T08:42:42.528Z,0.60
2018-01-17T08:45:18.284Z,0.60
2018-01-17T08:48:00.887Z,0.70
2018-01-17T08:50:29.804Z,0.70
2018-01-17T08:52:57.820Z,0.70
2018-01-17T08:55:31.000Z,0.70
2018-01-17T08:57:58.995Z,0.70
2018-01-17T09:00:45.008Z,0.80
2018-01-17T09:03:13.908Z,0.80
2018-01-17T09:05:47.792Z,0.80
2018-01-17T09:08:34.972Z,0.80
2018-01-17T09:11:04.940Z,0.80
2018-01-17T09:13:33.855Z,0.80
2018-01-17T09:16:02.644Z,0.70
2018-01-17T09:18:32.324Z,0.50
2018-01-17T09:21:01.348Z,0.50
2018-01-17T09:23:33.287Z,0.10
2018-01-17T09:26:07.904Z,0.10
2018-01-17T09:28:39.068Z,0.10
2018-01-17T09:31:07.059Z,0.10
2018-01-17T09:33:40.307Z,0.00
2018-01-17T09:36:08.315Z,0.10
2018-01-17T09:38:42.584Z,0.00
2018-01-17T09:41:10.596Z,0.00
2018-01-17T09:43:43.368Z,0.10
2018-01-17T09:46:32.987Z,0.10
2018-01-17T09:49:08.435Z,0.10
2018-01-17T09:51:44.287Z,0.20
2018-01-17T09:54:13.319Z,0.20
2018-01-17T09:56:42.303Z,0.20
2018-01-17T09:59:20.515Z,0.20
2018-01-17T10:01:48.523Z,0.20
2018-01-17T10:04:22.184Z,0.20
2018-01-17T10:06:51.155Z,0.20
2018-01-17T10:09:19.167Z,0.20
2018-01-17T10:11:47.939Z,0.20
2018-01-17T10:14:20.347Z,0.20
2018-01-17T10:16:54.115Z,0.30
2018-01-17T10:19:25.757Z,0.40
2018-01-17T10:22:07.979Z,0.40
2018-01-17T10:24:40.199Z,0.40
2018-01-17T10:27:09.143Z,0.40
2018-01-17T10:29:37.927Z,0.40
2018-01-17T10:32:05.931Z,0.30
2018-01-17T10:34:44.039Z,0.40
2018-01-17T10:37:30.515Z,0.50
2018-01-17T10:40:05.411Z,0.70
2018-01-17T10:42:45.191Z,0.70
2018-01-17T10:45:17.323Z,0.70
2018-01-17T10:47:49.091Z,0.70
2018-01-17T10:50:17.979Z,0.70
2018-01-17T10:52:50.503Z,0.80
2018-01-17T10:55:19.443Z,0.80
2018-01-17T10:57:48.351Z,0.80
2018-01-17T11:00:17.119Z,0.80
2018-01-17T11:02:45.131Z,0.80
2018-01-17T11:05:13.143Z,0.80
2018-01-17T11:07:41.186Z,0.70
2018-01-17T11:10:09.203Z,0.80
2018-01-17T11:15:42.939Z,0.80
2018-01-17T11:18:14.995Z,1.10
2018-01-17T11:20:43.003Z,1.00
2018-01-17T11:26:08.067Z,1.50
2018-01-17T11:28:40.843Z,1.70
2018-01-17T11:31:09.739Z,1.90
2018-01-17T11:33:37.755Z,2.50
2018-01-17T11:36:05.783Z,2.60
2018-01-17T11:38:37.535Z,2.60
2018-01-17T11:41:07.579Z,2.30
2018-01-17T11:43:36.355Z,3.50
2018-01-17T11:46:06.359Z,3.50
2018-01-17T11:48:34.362Z,4.00
2018-01-17T11:51:02.382Z,4.20
2018-01-17T11:53:30.435Z,3.40
2018-01-17T11:56:00.371Z,3.70
2018-01-17T11:58:28.375Z,3.80
2018-01-17T12:00:57.163Z,2.80
2018-01-17T12:03:25.954Z,2.30
2018-01-17T12:05:58.294Z,2.30
2018-01-17T12:08:26.355Z,2.30
2018-01-17T12:10:54.371Z,2.10
2018-01-17T12:13:24.152Z,1.70
2018-01-17T12:15:52.171Z,1.70
2018-01-17T12:18:20.186Z,1.50
2018-01-17T12:20:49.202Z,1.40
2018-01-17T12:23:17.206Z,1.40
2018-01-17T12:25:45.219Z,1.40
2018-01-17T12:28:13.243Z,1.60
2018-01-17T12:30:41.262Z,1.50
2018-01-17T12:33:09.282Z,1.50
2018-01-17T12:35:37.287Z,1.40
2018-01-17T12:38:05.342Z,1.40
2018-01-17T12:40:35.386Z,1.50
2018-01-17T12:43:05.422Z,1.80
2018-01-17T12:45:33.438Z,2.60
2018-01-17T12:48:01.462Z,3.20
2018-01-17T12:50:30.243Z,3.40
2018-01-17T12:52:59.022Z,3.50
2018-01-17T12:55:27.042Z,3.40
2018-01-17T12:57:55.370Z,3.50
2018-01-17T13:00:25.174Z,2.50
2018-01-17T13:02:53.186Z,2.50
2018-01-17T13:05:22.122Z,2.40
2018-01-17T13:07:51.113Z,2.70
2018-01-17T13:10:19.134Z,2.50
2018-01-17T13:12:47.902Z,2.10
2018-01-17T13:15:23.926Z,2.00
2018-01-17T13:17:52.934Z,2.00
2018-01-17T13:20:20.942Z,1.80
2018-01-17T13:22:48.950Z,1.60
2018-01-17T13:25:17.938Z,1.60
2018-01-17T13:27:45.938Z,1.50
2018-01-17T13:30:13.970Z,1.50
2018-01-17T13:32:41.986Z,1.60
2018-01-17T13:35:10.010Z,1.60
2018-01-17T13:37:40.062Z,1.70
2018-01-17T13:40:08.098Z,1.70
2018-01-17T13:42:36.130Z,1.70
2018-01-17T13:45:04.157Z,1.90
2018-01-17T13:47:36.624Z,1.80
2018-01-17T13:50:05.602Z,1.80
2018-01-17T13:52:34.597Z,1.90
2018-01-17T13:55:21.414Z,1.90
2018-01-17T13:57:55.950Z,1.80
2018-01-17T14:00:23.962Z,1.80
2018-01-17T14:02:52.898Z,1.90
2018-01-17T14:08:25.870Z,2.00
2018-01-17T14:10:53.886Z,1.80
2018-01-17T14:13:33.410Z,1.80
2018-01-17T14:16:01.419Z,1.70
2018-01-17T14:18:32.118Z,2.10
2018-01-17T14:21:00.169Z,2.10
2018-01-17T14:23:33.957Z,2.70
2018-01-17T14:26:10.338Z,2.80
2018-01-17T14:31:54.989Z,2.50
2018-01-17T14:34:23.917Z,1.90
2018-01-17T14:36:58.110Z,1.60
2018-01-17T14:39:33.885Z,1.50
2018-01-17T14:42:05.061Z,1.30
2018-01-17T14:44:49.153Z,1.20
2018-01-17T14:47:21.501Z,1.10
2018-01-17T14:49:49.518Z,1.00
2018-01-17T14:52:18.428Z,0.90
2018-01-17T14:54:48.333Z,0.90
2018-01-17T15:00:16.311Z,0.90
2018-01-17T15:03:08.210Z,0.80
2018-01-17T15:08:32.906Z,0.80
2018-01-17T15:11:00.909Z,0.70
2018-01-17T15:13:28.913Z,0.60
2018-01-17T15:16:01.349Z,0.40
2018-01-17T15:18:29.370Z,0.40
2018-01-17T15:21:08.737Z,0.30
2018-01-17T15:23:38.677Z,0.30
2018-01-17T15:26:10.413Z,0.30
2018-01-17T15:31:33.325Z,0.30
2018-01-17T15:34:06.769Z,0.20
2018-01-17T15:36:41.493Z,0.30
2018-01-17T15:39:10.449Z,0.20
2018-01-17T15:41:49.977Z,0.30
2018-01-17T15:44:18.905Z,0.20
2018-01-17T15:46:48.813Z,0.30
2018-01-17T15:49:20.537Z,0.30
2018-01-17T15:51:48.553Z,0.20
2018-01-17T15:54:22.145Z,0.20
2018-01-17T15:56:51.077Z,0.20
2018-01-17T15:59:19.081Z,0.20
2018-01-17T16:01:48.761Z,0.20
2018-01-17T16:04:31.810Z,0.20
2018-01-17T16:07:00.597Z,0.20
2018-01-17T16:09:42.489Z,0.20
2018-01-17T16:12:11.261Z,0.20
2018-01-17T16:14:43.721Z,0.20
2018-01-17T16:17:11.763Z,0.20
2018-01-17T16:19:43.357Z,0.20
2018-01-17T16:22:11.401Z,0.20
2018-01-17T16:24:41.309Z,0.20
2018-01-17T16:27:11.221Z,0.20
2018-01-17T16:30:02.868Z,0.20
2018-01-17T16:32:40.765Z,0.20
2018-01-17T16:35:10.709Z,0.30
2018-01-17T16:37:39.480Z,0.30
2018-01-17T16:40:09.485Z,0.30
2018-01-17T16:42:45.933Z,0.30
2018-01-17T16:45:14.009Z,0.30
2018-01-17T16:47:56.577Z,0.30
2018-01-17T16:50:30.289Z,0.30
2018-01-17T16:53:16.193Z,0.40
2018-01-17T16:56:09.641Z,0.40
2018-01-17T16:58:43.529Z,0.30
2018-01-17T17:01:13.392Z,0.30
2018-01-17T17:03:41.472Z,0.30
2018-01-17T17:06:09.483Z,0.30
2018-01-17T17:08:38.377Z,0.30
2018-01-17T17:11:07.161Z,0.30
2018-01-17T17:13:37.857Z,0.40
2018-01-17T17:16:07.768Z,0.30
2018-01-17T17:18:36.690Z,0.30
2018-01-17T17:21:04.741Z,0.30
2018-01-17T17:23:49.741Z,0.40
2018-01-17T17:26:22.921Z,0.40
2018-01-17T17:28:56.958Z,0.40
2018-01-17T17:34:22.192Z,0.50
2018-01-17T17:36:50.205Z,0.40
2018-01-17T17:39:22.097Z,0.40
2018-01-17T17:41:55.817Z,0.40
2018-01-17T17:44:24.737Z,0.40
2018-01-17T17:46:53.740Z,0.40
2018-01-17T17:49:34.232Z,0.40
2018-01-17T17:52:02.244Z,0.40
2018-01-17T17:54:32.200Z,0.40
2018-01-17T17:57:08.013Z,0.40
2018-01-17T17:59:41.136Z,0.40
2018-01-17T18:02:21.776Z,0.40
2018-01-17T18:04:54.892Z,0.50
2018-01-17T18:07:30.212Z,0.50
2018-01-17T18:09:58.248Z,0.50
2018-01-17T18:12:26.282Z,0.50
2018-01-17T18:14:55.540Z,0.50
2018-01-17T18:17:38.580Z,0.50
2018-01-17T18:20:07.980Z,0.50
2018-01-17T18:22:36.204Z,0.50
2018-01-17T18:25:07.536Z,0.50
2018-01-17T18:27:41.905Z,0.50
2018-01-17T18:30:11.880Z,0.50
2018-01-17T18:32:46.280Z,0.50
2018-01-17T18:35:19.808Z,0.50
2018-01-17T18:37:54.700Z,0.60
2018-01-17T18:40:24.691Z,0.60
2018-01-17T18:42:53.544Z,0.50
2018-01-17T18:45:23.556Z,0.50
2018-01-17T18:47:54.288Z,0.60
2018-01-17T18:50:38.184Z,0.60
2018-01-17T18:53:08.208Z,0.60
2018-01-17T18:55:41.184Z,0.60
2018-01-17T18:58:11.248Z,0.70
2018-01-17T19:00:46.956Z,0.80
2018-01-17T19:03:17.044Z,0.80
2018-01-17T19:05:47.140Z,0.80
2018-01-17T19:08:18.112Z,0.80
2018-01-17T19:10:49.560Z,0.80
2018-01-17T19:13:21.232Z,0.80
2018-01-17T19:15:59.436Z,0.80
2018-01-17T19:18:36.012Z,0.80
2018-01-17T19:21:08.343Z,0.70
2018-01-17T19:23:42.696Z,0.70
2018-01-17T19:26:12.511Z,0.60
2018-01-17T19:31:43.356Z,0.40
2018-01-17T19:34:42.128Z,0.50
2018-01-17T19:37:10.643Z,0.60
2018-01-17T19:39:46.112Z,0.60
2018-01-17T19:42:15.977Z,0.70
2018-01-17T19:44:53.160Z,0.60
2018-01-17T19:47:26.747Z,0.70
2018-01-17T19:50:02.399Z,0.70
2018-01-17T19:52:31.584Z,0.60
2018-01-17T19:55:03.728Z,0.60
2018-01-17T19:57:33.516Z,0.60
2018-01-17T20:00:03.544Z,0.60
2018-01-17T20:02:33.583Z,0.60
2018-01-17T20:05:02.016Z,0.60
2018-01-17T20:07:32.057Z,0.50
2018-01-17T20:10:12.441Z,0.50
2018-01-17T20:12:47.828Z,0.50
2018-01-17T20:15:18.079Z,0.50
2018-01-17T20:17:52.772Z,0.50
2018-01-17T20:20:21.831Z,0.50
2018-01-17T20:22:57.372Z,0.50
2018-01-17T20:25:26.676Z,0.50
2018-01-17T20:27:55.616Z,0.50
2018-01-17T20:30:28.780Z,0.50
2018-01-17T20:32:57.727Z,0.50
2018-01-17T20:35:26.691Z,0.50
2018-01-17T20:38:05.384Z,0.50
2018-01-17T20:40:37.791Z,0.50
2018-01-17T20:43:09.023Z,0.60
2018-01-17T20:45:40.300Z,0.60
2018-01-17T20:48:09.130Z,0.60
2018-01-17T20:50:41.840Z,0.60
2018-01-17T20:53:16.827Z,0.60
2018-01-17T20:55:49.079Z,0.70
2018-01-17T20:58:19.052Z,0.60
2018-01-17T21:00:55.395Z,0.60
2018-01-17T21:03:24.340Z,0.60
2018-01-17T21:05:55.459Z,0.60
2018-01-17T21:08:24.471Z,0.60
2018-01-17T21:10:53.281Z,0.60
2018-01-17T21:13:24.835Z,0.60
2018-01-17T21:15:52.944Z,0.60
2018-01-17T21:18:39.020Z,0.60
2018-01-17T21:21:12.823Z,0.60
2018-01-17T21:23:45.891Z,0.60
2018-01-17T21:26:16.727Z,0.70
2018-01-17T21:28:48.571Z,0.70
2018-01-17T21:31:20.280Z,0.60
2018-01-17T21:33:53.991Z,0.60
2018-01-17T21:36:22.459Z,0.70
2018-01-17T21:38:51.367Z,0.70
2018-01-17T21:41:25.172Z,0.70
2018-01-17T21:43:58.827Z,0.70
2018-01-17T21:46:33.579Z,0.70
2018-01-17T21:49:06.975Z,0.70
2018-01-17T21:51:41.139Z,0.70
2018-01-17T21:54:12.723Z,0.70
2018-01-17T21:56:45.067Z,0.60
2018-01-17T21:59:15.147Z,0.70
2018-01-17T22:01:43.195Z,0.70
2018-01-17T22:04:15.182Z,0.60
2018-01-17T22:06:58.523Z,0.60
2018-01-17T22:09:26.788Z,0.60
2018-01-17T22:11:59.363Z,0.60
2018-01-17T22:14:30.645Z,0.70
2018-01-17T22:16:59.887Z,0.70
2018-01-17T22:19:31.739Z,0.70
2018-01-17T22:22:06.183Z,0.70
2018-01-17T22:24:36.183Z,0.70
2018-01-17T22:27:07.379Z,0.80
2018-01-17T22:29:37.211Z,0.80
2018-01-17T22:32:08.479Z,0.80
2018-01-17T22:34:37.214Z,0.80
2018-01-17T22:37:09.623Z,0.80
2018-01-17T22:42:15.630Z,0.80
2018-01-17T22:44:45.735Z,0.80
2018-01-17T22:47:14.691Z,0.80
2018-01-17T22:49:44.520Z,0.80
2018-01-17T22:52:12.735Z,0.70
2018-01-17T22:54:41.603Z,0.70
2018-01-17T22:57:11.891Z,0.70
2018-01-17T22:59:46.335Z,0.50
2018-01-17T23:02:14.407Z,0.50
2018-01-17T23:07:20.467Z,0.40
2018-01-17T23:09:48.859Z,0.40
2018-01-17T23:12:19.055Z,0.40
2018-01-17T23:14:48.935Z,0.40
2018-01-17T23:17:17.930Z,0.40
2018-01-17T23:20:05.646Z,0.50
2018-01-17T23:22:38.142Z,0.50
2018-01-17T23:25:12.690Z,0.40
2018-01-17T23:27:48.546Z,0.20
2018-01-17T23:30:17.655Z,0.00
2018-01-17T23:32:46.738Z,-0.10
2018-01-17T23:35:16.951Z,-0.10
2018-01-17T23:37:46.943Z,-0.20
2018-01-17T23:40:16.802Z,-0.30
2018-01-17T23:42:46.698Z,-0.30
2018-01-17T23:45:32.215Z,-0.30
2018-01-17T23:48:04.555Z,-0.20
2018-01-17T23:50:40.015Z,-0.20
2018-01-17T23:53:09.406Z,-0.10
2018-01-17T23:55:38.738Z,0.00
